createdAt,value
2018-08-23T00:00:45.941Z,10.40
2018-08-23T00:03:19.740Z,10.03
2018-08-23T00:05:53.547Z,10.80
2018-08-23T00:08:22.866Z,10.13
2018-08-23T00:10:52.067Z,11.33
2018-08-23T00:13:21.144Z,10.40
2018-08-23T00:15:49.817Z,10.90
2018-08-23T00:18:18.429Z,10.60
2018-08-23T00:20:47.027Z,10.93
2018-08-23T00:23:15.697Z,11.77
2018-08-23T00:25:44.274Z,10.93
2018-08-23T00:28:13.210Z,10.77
2018-08-23T00:30:44.047Z,11.67
2018-08-23T00:33:12.717Z,12.77
2018-08-23T00:35:41.297Z,10.80
2018-08-23T00:38:09.953Z,11.83
2018-08-23T00:40:40.410Z,11.30
2018-08-23T00:43:10.092Z,11.40
2018-08-23T00:45:38.655Z,11.37
2018-08-23T00:48:07.386Z,10.30
2018-08-23T00:50:53.963Z,11.30
2018-08-23T00:53:22.562Z,11.53
2018-08-23T00:56:02.884Z,12.20
2018-08-23T00:58:31.436Z,11.03
2018-08-23T01:01:03.146Z,10.67
2018-08-23T01:03:32.383Z,11.33
2018-08-23T01:06:00.962Z,11.83
2018-08-23T01:08:34.045Z,12.23
2018-08-23T01:11:03.585Z,13.63
2018-08-23T01:13:32.190Z,11.80
2018-08-23T01:16:01.031Z,12.33
2018-08-23T01:18:29.656Z,12.50
2018-08-23T01:20:58.290Z,12.20
2018-08-23T01:23:26.878Z,12.70
2018-08-23T01:25:55.494Z,12.43
2018-08-23T01:28:24.180Z,11.90
2018-08-23T01:30:52.796Z,13.00
2018-08-23T01:33:22.381Z,11.90
2018-08-23T01:35:51.828Z,12.30
2018-08-23T01:38:20.454Z,12.20
2018-08-23T01:40:49.509Z,12.30
2018-08-23T01:43:18.225Z,12.57
2018-08-23T01:45:46.831Z,11.20
2018-08-23T01:48:15.407Z,12.17
2018-08-23T01:50:44.005Z,13.30
2018-08-23T01:53:12.627Z,12.70
2018-08-23T01:55:41.205Z,13.30
2018-08-23T01:58:09.805Z,13.17
2018-08-23T02:00:38.382Z,13.00
2018-08-23T02:03:06.988Z,12.60
2018-08-23T02:05:37.866Z,12.47
2018-08-23T02:08:06.518Z,12.97
2018-08-23T02:10:35.141Z,13.00
2018-08-23T02:13:03.799Z,13.00
2018-08-23T02:15:40.686Z,13.43
2018-08-23T02:18:09.288Z,13.30
2018-08-23T02:20:37.883Z,12.77
2018-08-23T02:23:07.807Z,12.53
2018-08-23T02:25:36.376Z,14.30
2018-08-23T02:30:49.436Z,13.90
2018-08-23T02:33:18.203Z,13.17
2018-08-23T02:36:04.758Z,14.10
2018-08-23T02:38:34.021Z,14.30
2018-08-23T02:41:02.594Z,13.87
2018-08-23T02:43:31.191Z,13.33
2018-08-23T02:46:02.435Z,14.10
2018-08-23T02:48:31.029Z,13.47
2018-08-23T02:50:59.637Z,14.17
2018-08-23T02:53:35.463Z,14.73
2018-08-23T02:56:14.611Z,13.27
2018-08-23T02:58:57.133Z,13.83
2018-08-23T03:01:27.174Z,14.70
2018-08-23T03:04:08.326Z,14.00
2018-08-23T03:06:44.209Z,14.77
2018-08-23T03:09:12.863Z,14.30
2018-08-23T03:11:41.420Z,15.27
2018-08-23T03:14:10.055Z,14.20
2018-08-23T03:16:51.114Z,16.23
2018-08-23T03:19:19.762Z,15.40
2018-08-23T03:21:53.606Z,15.13
2018-08-23T03:24:22.227Z,14.43
2018-08-23T03:26:51.037Z,14.20
2018-08-23T03:29:19.903Z,15.47
2018-08-23T03:31:48.453Z,14.33
2018-08-23T03:34:17.168Z,14.87
2018-08-23T03:36:45.779Z,14.77
2018-08-23T03:39:14.382Z,15.20
2018-08-23T03:41:42.974Z,16.50
2018-08-23T03:44:24.666Z,15.57
2018-08-23T03:46:54.218Z,15.00
2018-08-23T03:49:33.094Z,14.63
2018-08-23T03:52:01.717Z,14.30
2018-08-23T03:54:31.201Z,15.20
2018-08-23T03:57:16.226Z,13.90
2018-08-23T03:59:47.842Z,15.10
2018-08-23T04:02:17.551Z,15.00
2018-08-23T04:04:56.742Z,14.40
2018-08-23T04:07:25.305Z,15.07
2018-08-23T04:09:53.862Z,13.70
2018-08-23T04:12:22.541Z,14.50
2018-08-23T04:14:51.152Z,15.30
2018-08-23T04:17:19.737Z,14.83
2018-08-23T04:19:49.533Z,15.07
2018-08-23T04:22:18.425Z,15.37
2018-08-23T04:24:55.032Z,13.73
2018-08-23T04:27:23.657Z,13.30
2018-08-23T04:29:52.248Z,13.40
2018-08-23T04:32:29.217Z,14.10
2018-08-23T04:35:00.542Z,14.70
2018-08-23T04:37:30.071Z,14.00
2018-08-23T04:40:03.867Z,15.00
2018-08-23T04:42:32.638Z,12.90
2018-08-23T04:45:26.610Z,12.80
2018-08-23T04:48:00.721Z,13.50
2018-08-23T04:50:29.307Z,14.47
2018-08-23T04:52:57.916Z,13.70
2018-08-23T04:55:27.115Z,14.53
2018-08-23T04:57:56.708Z,13.13
2018-08-23T05:00:25.834Z,15.37
2018-08-23T05:02:54.420Z,13.93
2018-08-23T05:05:23.071Z,12.80
2018-08-23T05:07:51.662Z,12.47
2018-08-23T05:10:20.331Z,13.20
2018-08-23T05:12:50.544Z,13.37
2018-08-23T05:15:19.184Z,13.70
2018-08-23T05:17:47.863Z,13.40
2018-08-23T05:20:16.558Z,13.97
2018-08-23T05:22:52.910Z,14.10
2018-08-23T05:25:23.377Z,13.57
2018-08-23T05:28:07.270Z,13.10
2018-08-23T05:30:35.897Z,14.50
2018-08-23T05:33:09.530Z,13.30
2018-08-23T05:35:38.092Z,14.57
2018-08-23T05:38:07.989Z,13.63
2018-08-23T05:40:42.268Z,13.33
2018-08-23T05:43:11.317Z,13.77
2018-08-23T05:45:45.158Z,13.87
2018-08-23T05:48:21.687Z,13.70
2018-08-23T05:50:50.368Z,13.30
2018-08-23T05:53:19.776Z,12.70
2018-08-23T05:55:53.481Z,12.77
2018-08-23T05:58:25.207Z,13.50
2018-08-23T06:00:53.936Z,13.77
2018-08-23T06:03:22.496Z,14.00
2018-08-23T06:05:51.594Z,13.60
2018-08-23T06:08:20.315Z,10.57
2018-08-23T06:10:50.800Z,12.20
2018-08-23T06:13:19.927Z,12.83
2018-08-23T06:15:54.772Z,13.57
2018-08-23T06:18:23.993Z,12.43
2018-08-23T06:20:52.633Z,11.90
2018-08-23T06:23:21.668Z,12.53
2018-08-23T06:25:50.627Z,11.77
2018-08-23T06:28:26.337Z,12.73
2018-08-23T06:30:58.936Z,13.37
2018-08-23T06:33:38.650Z,12.40
2018-08-23T06:36:08.330Z,12.20
2018-08-23T06:38:37.936Z,12.43
2018-08-23T06:41:07.701Z,12.80
2018-08-23T06:43:36.407Z,13.53
2018-08-23T06:46:05.555Z,13.30
2018-08-23T06:48:34.257Z,12.00
2018-08-23T06:51:03.907Z,12.57
2018-08-23T06:53:46.655Z,12.07
2018-08-23T06:56:16.561Z,13.03
2018-08-23T06:58:45.275Z,13.40
2018-08-23T07:01:30.126Z,13.93
2018-08-23T07:04:03.801Z,12.70
2018-08-23T07:06:32.894Z,12.60
2018-08-23T07:09:01.932Z,12.90
2018-08-23T07:11:30.675Z,12.70
2018-08-23T07:14:31.011Z,11.90
2018-08-23T07:17:09.531Z,13.43
2018-08-23T07:19:38.107Z,12.87
2018-08-23T07:22:06.926Z,13.80
2018-08-23T07:24:44.766Z,13.03
2018-08-23T07:27:14.758Z,11.97
2018-08-23T07:29:54.872Z,12.17
2018-08-23T07:32:24.868Z,12.20
2018-08-23T07:35:06.105Z,11.60
2018-08-23T07:37:36.602Z,12.30
2018-08-23T07:40:11.348Z,12.17
2018-08-23T07:42:41.230Z,11.47
2018-08-23T07:45:10.473Z,11.47
2018-08-23T07:47:40.773Z,11.80
2018-08-23T07:50:09.400Z,11.37
2018-08-23T07:52:38.825Z,10.83
2018-08-23T07:55:07.940Z,11.70
2018-08-23T07:57:37.259Z,10.80
2018-08-23T08:00:25.593Z,10.77
2018-08-23T08:02:54.374Z,10.30
2018-08-23T08:05:25.314Z,12.30
2018-08-23T08:07:53.934Z,10.90
2018-08-23T08:10:22.561Z,11.80
2018-08-23T08:12:52.037Z,12.30
2018-08-23T08:15:20.789Z,9.77
2018-08-23T08:17:49.357Z,11.70
2018-08-23T08:20:18.018Z,11.07
2018-08-23T08:22:46.635Z,10.67
2018-08-23T08:25:17.142Z,9.73
2018-08-23T08:27:45.958Z,10.33
2018-08-23T08:30:15.849Z,9.83
2018-08-23T08:32:44.945Z,9.73
2018-08-23T08:35:16.430Z,10.37
2018-08-23T08:37:46.112Z,9.03
2018-08-23T08:40:18.865Z,9.23
2018-08-23T08:42:48.035Z,9.57
2018-08-23T08:45:16.687Z,9.50
2018-08-23T08:47:46.430Z,10.37
2018-08-23T08:50:15.417Z,9.63
2018-08-23T08:52:44.066Z,9.20
2018-08-23T08:55:14.134Z,9.60
2018-08-23T08:57:44.922Z,9.47
2018-08-23T09:00:13.569Z,9.13
2018-08-23T09:02:42.307Z,9.30
2018-08-23T09:05:11.967Z,9.47
2018-08-23T09:07:42.627Z,9.53
2018-08-23T09:10:11.244Z,9.47
2018-08-23T09:12:44.945Z,9.50
2018-08-23T09:15:13.539Z,9.93
2018-08-23T09:17:44.340Z,10.30
2018-08-23T09:20:15.283Z,8.97
2018-08-23T09:22:49.046Z,8.83
2018-08-23T09:25:26.591Z,10.10
2018-08-23T09:27:55.229Z,9.90
2018-08-23T09:30:26.030Z,9.10
2018-08-23T09:32:55.005Z,9.03
2018-08-23T09:35:30.981Z,9.60
2018-08-23T09:38:03.448Z,9.90
2018-08-23T09:40:32.044Z,9.40
2018-08-23T09:43:03.198Z,9.57
2018-08-23T09:45:33.192Z,9.00
2018-08-23T09:48:01.849Z,9.60
2018-08-23T09:50:30.481Z,9.40
2018-08-23T09:52:59.161Z,9.03
2018-08-23T09:55:29.718Z,9.47
2018-08-23T09:57:58.838Z,8.83
2018-08-23T10:00:32.540Z,8.80
2018-08-23T10:03:06.235Z,8.63
2018-08-23T10:05:44.294Z,9.30
2018-08-23T10:08:18.010Z,9.37
2018-08-23T10:12:54.485Z,8.63
2018-08-23T10:15:28.416Z,9.00
2018-08-23T10:18:02.112Z,8.77
2018-08-23T10:20:35.960Z,8.70
2018-08-23T10:23:09.690Z,9.23
2018-08-23T10:25:42.070Z,9.30
2018-08-23T10:28:11.986Z,9.50
2018-08-23T10:30:40.804Z,8.80
2018-08-23T10:33:09.438Z,9.10
2018-08-23T10:35:38.655Z,9.17
2018-08-23T10:38:08.012Z,9.33
2018-08-23T10:40:36.663Z,9.30
2018-08-23T10:43:05.335Z,8.80
2018-08-23T10:45:33.948Z,9.30
2018-08-23T10:48:07.590Z,9.23
2018-08-23T10:50:41.573Z,8.57
2018-08-23T10:53:10.272Z,8.30
2018-08-23T10:55:38.910Z,9.00
2018-08-23T10:58:07.614Z,8.77
2018-08-23T11:00:36.284Z,7.90
2018-08-23T11:03:04.956Z,8.27
2018-08-23T11:05:33.603Z,7.10
2018-08-23T11:08:07.284Z,9.13
2018-08-23T11:10:41.030Z,8.20
2018-08-23T11:13:14.934Z,9.00
2018-08-23T11:15:43.597Z,8.13
2018-08-23T11:18:17.280Z,8.70
2018-08-23T11:20:47.994Z,9.17
2018-08-23T11:23:18.699Z,8.30
2018-08-23T11:25:47.352Z,8.70
2018-08-23T11:28:21.525Z,8.23
2018-08-23T11:30:50.724Z,8.67
2018-08-23T11:33:19.343Z,8.70
2018-08-23T11:35:47.967Z,9.00
2018-08-23T11:38:16.609Z,8.87
2018-08-23T11:40:45.215Z,8.17
2018-08-23T11:43:13.839Z,8.00
2018-08-23T11:45:42.442Z,8.53
2018-08-23T11:48:11.072Z,8.03
2018-08-23T11:50:39.776Z,7.80
2018-08-23T11:53:09.120Z,8.00
2018-08-23T11:55:37.885Z,9.17
2018-08-23T11:58:06.588Z,8.43
2018-08-23T12:00:35.986Z,8.03
2018-08-23T12:03:04.818Z,8.23
2018-08-23T12:05:33.594Z,8.03
2018-08-23T12:08:02.279Z,7.40
2018-08-23T12:10:32.011Z,7.73
2018-08-23T12:13:01.644Z,8.53
2018-08-23T12:15:31.880Z,8.17
2018-08-23T12:18:01.479Z,7.50
2018-08-23T12:20:30.297Z,8.20
2018-08-23T12:22:59.173Z,7.77
2018-08-23T12:25:27.909Z,8.50
2018-08-23T12:28:00.347Z,8.33
2018-08-23T12:30:30.274Z,8.00
2018-08-23T12:32:59.012Z,7.57
2018-08-23T12:35:27.874Z,8.30
2018-08-23T12:38:02.492Z,7.73
2018-08-23T12:40:37.152Z,7.77
2018-08-23T12:43:09.177Z,8.20
2018-08-23T12:45:41.085Z,7.73
2018-08-23T12:48:11.242Z,7.50
2018-08-23T12:50:40.468Z,7.87
2018-08-23T12:53:09.230Z,7.30
2018-08-23T12:55:38.030Z,6.90
2018-08-23T12:58:10.500Z,7.13
2018-08-23T13:00:40.266Z,6.77
2018-08-23T13:03:09.449Z,6.70
2018-08-23T13:05:38.561Z,7.60
2018-08-23T13:08:07.607Z,7.53
2018-08-23T13:10:36.864Z,7.60
2018-08-23T13:13:05.700Z,7.30
2018-08-23T13:15:34.461Z,6.72
2018-08-23T13:18:03.624Z,7.50
2018-08-23T13:20:32.516Z,6.73
2018-08-23T13:23:01.239Z,7.13
2018-08-23T13:25:29.971Z,7.10
2018-08-23T13:27:58.774Z,7.20
2018-08-23T13:30:27.513Z,7.07
2018-08-23T13:32:56.269Z,7.80
2018-08-23T13:35:25.756Z,7.33
2018-08-23T13:37:54.513Z,7.10
2018-08-23T13:40:23.229Z,7.37
2018-08-23T13:42:51.914Z,7.28
2018-08-23T13:45:20.624Z,6.30
2018-08-23T13:47:49.269Z,7.43
2018-08-23T13:50:17.905Z,7.17
2018-08-23T13:52:46.611Z,6.25
2018-08-23T13:55:15.391Z,6.90
2018-08-23T13:57:44.211Z,6.10
2018-08-23T14:00:18.334Z,6.25
2018-08-23T14:02:47.295Z,6.65
2018-08-23T14:05:16.312Z,7.25
2018-08-23T14:07:45.375Z,6.00
2018-08-23T14:10:14.604Z,6.03
2018-08-23T14:12:43.532Z,6.10
2018-08-23T14:15:17.620Z,6.80
2018-08-23T14:17:46.307Z,5.85
2018-08-23T14:20:14.983Z,5.30
2018-08-23T14:22:43.718Z,5.40
2018-08-23T14:25:14.982Z,6.08
2018-08-23T14:27:44.670Z,5.28
2018-08-23T14:30:13.362Z,5.20
2018-08-23T14:32:42.171Z,5.12
2018-08-23T14:37:47.509Z,5.08
2018-08-23T14:40:16.438Z,5.33
2018-08-23T14:42:45.166Z,5.00
2018-08-23T14:45:18.075Z,5.22
2018-08-23T14:48:18.831Z,4.87
2018-08-23T14:50:52.810Z,5.15
2018-08-23T14:53:26.840Z,5.03
2018-08-23T14:56:01.175Z,4.58
2018-08-23T14:58:30.439Z,5.30
2018-08-23T15:00:59.771Z,4.60
2018-08-23T15:03:29.864Z,4.70
2018-08-23T15:05:58.630Z,4.75
2018-08-23T15:08:27.389Z,5.37
2018-08-23T15:10:56.173Z,5.10
2018-08-23T15:13:24.856Z,4.90
2018-08-23T15:15:54.099Z,4.85
2018-08-23T15:18:23.375Z,4.85
2018-08-23T15:20:53.298Z,4.92
2018-08-23T15:23:22.054Z,5.28
2018-08-23T15:25:50.790Z,4.78
2018-08-23T15:28:19.399Z,4.83
2018-08-23T15:30:48.044Z,5.00
2018-08-23T15:33:16.666Z,4.80
2018-08-23T15:35:45.277Z,5.20
2018-08-23T15:38:13.889Z,5.05
2018-08-23T15:40:42.445Z,4.92
2018-08-23T15:43:11.096Z,4.95
2018-08-23T15:45:39.718Z,4.55
2018-08-23T15:48:08.403Z,4.45
2018-08-23T15:50:37.078Z,4.70
2018-08-23T15:53:05.955Z,4.55
2018-08-23T15:55:34.895Z,5.20
2018-08-23T15:58:03.393Z,4.03
2018-08-23T16:00:41.028Z,4.47
2018-08-23T16:03:09.882Z,4.33
2018-08-23T16:05:39.559Z,4.83
2018-08-23T16:08:08.236Z,4.60
2018-08-23T16:10:36.889Z,5.03
2018-08-23T16:13:05.711Z,5.12
2018-08-23T16:15:34.348Z,4.62
2018-08-23T16:18:08.421Z,4.85
2018-08-23T16:20:42.254Z,5.05
2018-08-23T16:23:10.903Z,4.92
2018-08-23T16:25:43.689Z,5.33
2018-08-23T16:28:12.550Z,5.35
2018-08-23T16:30:42.442Z,5.40
2018-08-23T16:33:11.626Z,5.08
2018-08-23T16:35:40.579Z,5.10
2018-08-23T16:38:12.466Z,5.60
2018-08-23T16:40:41.085Z,5.55
2018-08-23T16:43:09.954Z,5.45
2018-08-23T16:45:38.567Z,5.70
2018-08-23T16:48:07.288Z,5.53
2018-08-23T16:50:36.387Z,5.65
2018-08-23T16:53:05.047Z,5.75
2018-08-23T16:55:33.646Z,6.15
2018-08-23T16:58:02.255Z,5.90
2018-08-23T17:00:30.939Z,6.00
2018-08-23T17:02:59.574Z,5.37
2018-08-23T17:05:28.170Z,6.47
2018-08-23T17:07:56.766Z,6.30
2018-08-23T17:10:25.788Z,6.60
2018-08-23T17:12:54.441Z,6.80
2018-08-23T17:15:23.143Z,6.20
2018-08-23T17:17:55.621Z,6.20
2018-08-23T17:20:24.260Z,7.22
2018-08-23T17:22:52.865Z,7.60
2018-08-23T17:25:21.567Z,7.60
2018-08-23T17:27:50.149Z,6.40
2018-08-23T17:30:19.411Z,6.83
2018-08-23T17:32:48.494Z,7.30
2018-08-23T17:35:17.120Z,7.80
2018-08-23T17:37:45.735Z,7.90
2018-08-23T17:40:14.436Z,8.07
2018-08-23T17:42:43.562Z,8.30
2018-08-23T17:45:13.402Z,7.70
2018-08-23T17:47:41.967Z,8.50
2018-08-23T17:50:10.649Z,9.13
2018-08-23T17:52:39.282Z,8.40
2018-08-23T17:55:07.906Z,8.90
2018-08-23T17:57:36.488Z,9.17
2018-08-23T18:00:05.642Z,8.40
2018-08-23T18:02:34.319Z,8.87
2018-08-23T18:05:03.130Z,8.57
2018-08-23T18:07:31.822Z,8.40
2018-08-23T18:10:00.429Z,9.40
2018-08-23T18:12:29.055Z,9.30
2018-08-23T18:14:57.689Z,9.47
2018-08-23T18:17:26.330Z,8.50
2018-08-23T18:19:54.930Z,9.00
2018-08-23T18:22:23.692Z,9.13
2018-08-23T18:24:52.296Z,9.00
2018-08-23T18:27:20.929Z,9.53
2018-08-23T18:29:49.536Z,9.00
2018-08-23T18:32:18.319Z,9.10
2018-08-23T18:34:46.788Z,9.47
2018-08-23T18:37:15.393Z,9.03
2018-08-23T18:39:44.037Z,8.67
2018-08-23T18:42:12.812Z,9.77
2018-08-23T18:44:41.470Z,9.67
2018-08-23T18:47:10.558Z,9.03
2018-08-23T18:49:39.186Z,9.40
2018-08-23T18:52:07.843Z,9.57
2018-08-23T18:54:36.448Z,11.23
2018-08-23T18:57:05.224Z,9.17
2018-08-23T18:59:33.861Z,9.83
2018-08-23T19:02:02.908Z,9.90
2018-08-23T19:04:31.558Z,10.33
2018-08-23T19:07:00.232Z,9.60
2018-08-23T19:09:28.914Z,10.13
2018-08-23T19:11:58.053Z,9.87
2018-08-23T19:14:26.643Z,10.00
2018-08-23T19:17:00.582Z,10.43
2018-08-23T19:19:29.211Z,10.30
2018-08-23T19:21:57.862Z,9.83
2018-08-23T19:24:31.654Z,10.30
2018-08-23T19:27:00.324Z,10.83
2018-08-23T19:29:29.005Z,10.20
2018-08-23T19:31:57.671Z,10.33
2018-08-23T19:34:26.449Z,10.73
2018-08-23T19:36:55.180Z,10.07
2018-08-23T19:39:23.894Z,11.17
2018-08-23T19:41:52.554Z,10.60
2018-08-23T19:44:21.189Z,11.20
2018-08-23T19:46:54.994Z,9.90
2018-08-23T19:49:58.413Z,10.70
2018-08-23T19:52:27.206Z,10.57
2018-08-23T19:54:55.866Z,9.90
2018-08-23T19:57:24.521Z,10.00
2018-08-23T19:59:53.146Z,10.43
2018-08-23T20:02:21.753Z,10.07
2018-08-23T20:04:50.462Z,10.30
2018-08-23T20:07:20.831Z,10.90
2018-08-23T20:09:49.533Z,12.07
2018-08-23T20:12:18.340Z,10.27
2018-08-23T20:14:48.099Z,9.90
2018-08-23T20:17:17.447Z,11.17
2018-08-23T20:19:46.116Z,11.27
2018-08-23T20:22:14.905Z,11.43
2018-08-23T20:24:45.128Z,10.40
2018-08-23T20:27:14.268Z,10.80
2018-08-23T20:29:42.992Z,10.40
2018-08-23T20:32:12.079Z,10.97
2018-08-23T20:34:40.798Z,11.10
2018-08-23T20:37:09.512Z,11.07
2018-08-23T20:39:38.204Z,11.00
2018-08-23T20:42:07.432Z,11.07
2018-08-23T20:44:36.114Z,11.40
2018-08-23T20:47:04.889Z,11.30
2018-08-23T20:49:33.513Z,9.97
2018-08-23T20:52:02.295Z,11.23
2018-08-23T20:54:30.988Z,11.30
2018-08-23T20:56:59.685Z,10.60
2018-08-23T20:59:28.326Z,11.10
2018-08-23T21:01:57.015Z,11.23
2018-08-23T21:04:26.173Z,10.70
2018-08-23T21:06:54.876Z,11.23
2018-08-23T21:09:23.669Z,10.80
2018-08-23T21:11:52.479Z,10.07
2018-08-23T21:14:21.207Z,10.73
2018-08-23T21:16:51.428Z,10.43
2018-08-23T21:19:20.162Z,10.00
2018-08-23T21:21:48.973Z,9.93
2018-08-23T21:24:17.763Z,10.23
2018-08-23T21:26:46.547Z,10.97
2018-08-23T21:29:15.281Z,10.93
2018-08-23T21:31:43.962Z,10.63
2018-08-23T21:34:12.669Z,10.27
2018-08-23T21:36:41.323Z,10.80
2018-08-23T21:39:10.437Z,10.70
2018-08-23T21:41:39.165Z,10.90
2018-08-23T21:44:07.755Z,10.20
2018-08-23T21:46:36.483Z,11.17
2018-08-23T21:49:05.206Z,11.53
2018-08-23T21:51:33.826Z,11.30
2018-08-23T21:54:02.497Z,11.77
2018-08-23T21:56:31.142Z,11.50
2018-08-23T21:58:59.728Z,11.70
2018-08-23T22:01:28.350Z,12.00
2018-08-23T22:03:56.981Z,12.53
2018-08-23T22:06:25.579Z,12.23
2018-08-23T22:08:54.220Z,12.33
2018-08-23T22:11:22.853Z,11.40
2018-08-23T22:13:51.468Z,11.37
2018-08-23T22:16:20.097Z,12.90
2018-08-23T22:18:48.837Z,12.13
2018-08-23T22:21:17.431Z,11.77
2018-08-23T22:23:46.077Z,12.10
2018-08-23T22:26:14.753Z,11.67
2018-08-23T22:28:43.392Z,12.17
2018-08-23T22:31:12.052Z,12.67
2018-08-23T22:33:40.939Z,11.77
2018-08-23T22:36:09.622Z,11.80
2018-08-23T22:38:38.263Z,12.90
2018-08-23T22:41:06.905Z,11.73
2018-08-23T22:43:35.513Z,12.10
2018-08-23T22:48:43.272Z,13.60
2018-08-23T22:51:11.921Z,12.10
2018-08-23T22:53:40.607Z,13.50
2018-08-23T22:56:09.212Z,13.27
2018-08-23T22:58:37.903Z,12.83
2018-08-23T23:01:06.547Z,12.70
2018-08-23T23:03:40.370Z,13.83
2018-08-23T23:06:09.026Z,13.20
2018-08-23T23:08:37.622Z,12.50
2018-08-23T23:11:06.509Z,14.03
2018-08-23T23:13:35.133Z,12.40
2018-08-23T23:16:03.730Z,14.20
2018-08-23T23:18:32.340Z,13.63
2018-08-23T23:21:00.956Z,13.40
2018-08-23T23:23:29.545Z,13.40
2018-08-23T23:25:58.171Z,13.37
2018-08-23T23:28:26.806Z,13.27
2018-08-23T23:30:55.464Z,13.57
2018-08-23T23:33:24.071Z,13.37
2018-08-23T23:35:52.689Z,13.17
2018-08-23T23:38:21.333Z,12.30
2018-08-23T23:40:49.913Z,13.07
2018-08-23T23:43:18.505Z,12.40
2018-08-23T23:45:48.005Z,12.00
2018-08-23T23:48:16.650Z,12.83
2018-08-23T23:50:45.367Z,13.80
2018-08-23T23:53:14.022Z,12.27
2018-08-23T23:55:42.637Z,11.83
2018-08-23T23:58:11.364Z,12.00
